Terminal Aerodrome Forecast
Issued by NWS

Home | Current Version | Previous Version | Text Only | Print | Product List | Glossary On
Versions: 1 2 3 4 5 6 7 8 9 10 11 12 13 14 15
000
FTUS45 KTFX 312344
TAFHVR
TAF
KHVR 312344Z 0100/0124 06010KT P6SM BKN150
      TEMPO 0101/0105 VRB20G40KT -TSRA SCT080CB BKN150
     FM010500 23008KT P6SM BKN150
     FM011400 VRB06KT P6SM FEW150=

USA.gov is the U.S. government's official web portal to all federal, state and local government web resources and services.